sensor_id;sensor_type;location;lat;lon;timestamp;pressure;altitude;pressure_sealevel;temperature;humidity
77725;BME280;66892;53.236;6.550;2023-04-16T00:00:42;102250.72;;;7.96;97.88
77725;BME280;66892;53.236;6.550;2023-04-16T00:03:08;102253.22;;;7.92;98.10
77725;BME280;66892;53.236;6.550;2023-04-16T00:05:34;102256.19;;;8.03;97.70
77725;BME280;66892;53.236;6.550;2023-04-16T00:08:00;102259.47;;;7.95;98.13
77725;BME280;66892;53.236;6.550;2023-04-16T00:10:26;102257.78;;;7.97;97.94
77725;BME280;66892;53.236;6.550;2023-04-16T00:12:53;102265.81;;;8.02;97.96
77725;BME280;66892;53.236;6.550;2023-04-16T00:15:20;102255.94;;;7.95;98.02
77725;BME280;66892;53.236;6.550;2023-04-16T00:17:46;102260.25;;;7.93;98.11
77725;BME280;66892;53.236;6.550;2023-04-16T00:20:12;102273.63;;;7.99;97.89
77725;BME280;66892;53.236;6.550;2023-04-16T00:22:38;102274.41;;;7.96;97.72
77725;BME280;66892;53.236;6.550;2023-04-16T00:25:04;102277.66;;;7.88;98.05
77725;BME280;66892;53.236;6.550;2023-04-16T00:27:31;102278.50;;;7.87;98.47
77725;BME280;66892;53.236;6.550;2023-04-16T00:29:58;102273.94;;;7.80;98.27
77725;BME280;66892;53.236;6.550;2023-04-16T00:32:24;102274.50;;;7.71;98.76
77725;BME280;66892;53.236;6.550;2023-04-16T00:34:50;102278.75;;;7.66;99.01
77725;BME280;66892;53.236;6.550;2023-04-16T00:37:16;102278.66;;;7.63;98.85
77725;BME280;66892;53.236;6.550;2023-04-16T00:39:42;102286.47;;;7.60;99.36
77725;BME280;66892;53.236;6.550;2023-04-16T00:42:08;102287.31;;;7.59;99.53
77725;BME280;66892;53.236;6.550;2023-04-16T00:44:34;102281.84;;;7.53;99.71
77725;BME280;66892;53.236;6.550;2023-04-16T00:47:02;102281.66;;;7.47;99.86
77725;BME280;66892;53.236;6.550;2023-04-16T00:49:29;102290.78;;;7.58;100.00
77725;BME280;66892;53.236;6.550;2023-04-16T00:51:56;102294.31;;;7.59;99.91
77725;BME280;66892;53.236;6.550;2023-04-16T00:54:23;102296.94;;;7.59;100.00
77725;BME280;66892;53.236;6.550;2023-04-16T00:56:50;102292.72;;;7.64;100.00
77725;BME280;66892;53.236;6.550;2023-04-16T00:59:16;102294.59;;;7.68;99.90
77725;BME280;66892;53.236;6.550;2023-04-16T01:01:42;102298.03;;;7.65;100.00
77725;BME280;66892;53.236;6.550;2023-04-16T01:04:10;102297.28;;;7.69;100.00
77725;BME280;66892;53.236;6.550;2023-04-16T01:06:36;102296.22;;;7.64;100.00
77725;BME280;66892;53.236;6.550;2023-04-16T01:09:02;102295.47;;;7.67;100.00
77725;BME280;66892;53.236;6.550;2023-04-16T01:11:28;102290.56;;;7.79;99.96
77725;BME280;66892;53.236;6.550;2023-04-16T01:13:54;102295.94;;;7.82;99.70
77725;BME280;66892;53.236;6.550;2023-04-16T01:16:20;102294.22;;;7.84;99.34
77725;BME280;66892;53.236;6.550;2023-04-16T01:18:46;102296.00;;;7.85;99.67
77725;BME280;66892;53.236;6.550;2023-04-16T01:21:14;102300.19;;;7.78;99.89
77725;BME280;66892;53.236;6.550;2023-04-16T01:23:40;102299.22;;;7.75;100.00
77725;BME280;66892;53.236;6.550;2023-04-16T01:26:06;102296.84;;;7.84;99.83
77725;BME280;66892;53.236;6.550;2023-04-16T01:28:32;102295.00;;;7.80;99.91
77725;BME280;66892;53.236;6.550;2023-04-16T01:30:58;102293.28;;;7.82;99.91
77725;BME280;66892;53.236;6.550;2023-04-16T01:33:24;102295.84;;;7.80;99.83
77725;BME280;66892;53.236;6.550;2023-04-16T01:35:50;102297.75;;;7.84;99.64
77725;BME280;66892;53.236;6.550;2023-04-16T01:38:17;102294.09;;;7.79;99.89
77725;BME280;66892;53.236;6.550;2023-04-16T01:40:43;102293.44;;;7.86;99.68
77725;BME280;66892;53.236;6.550;2023-04-16T01:43:09;102288.06;;;7.83;99.78
77725;BME280;66892;53.236;6.550;2023-04-16T01:45:35;102287.22;;;7.84;100.00
77725;BME280;66892;53.236;6.550;2023-04-16T01:48:02;102299.66;;;7.90;99.63
77725;BME280;66892;53.236;6.550;2023-04-16T01:50:29;102289.81;;;7.83;99.93
77725;BME280;66892;53.236;6.550;2023-04-16T01:52:55;102289.09;;;7.88;99.98
77725;BME280;66892;53.236;6.550;2023-04-16T01:55:22;102296.28;;;7.94;99.68
77725;BME280;66892;53.236;6.550;2023-04-16T01:57:49;102298.94;;;7.94;99.64
77725;BME280;66892;53.236;6.550;2023-04-16T02:00:15;102304.09;;;7.91;99.16
77725;BME280;66892;53.236;6.550;2023-04-16T02:02:41;102299.63;;;7.88;99.33
77725;BME280;66892;53.236;6.550;2023-04-16T02:05:08;102304.16;;;7.92;99.00
77725;BME280;66892;53.236;6.550;2023-04-16T02:07:34;102300.53;;;7.89;99.48
77725;BME280;66892;53.236;6.550;2023-04-16T02:10:00;102300.66;;;7.93;99.12
77725;BME280;66892;53.236;6.550;2023-04-16T02:12:27;102302.41;;;7.93;98.96
77725;BME280;66892;53.236;6.550;2023-04-16T02:14:53;102298.94;;;7.94;98.99
77725;BME280;66892;53.236;6.550;2023-04-16T02:17:19;102306.81;;;7.92;99.26
77725;BME280;66892;53.236;6.550;2023-04-16T02:19:45;102307.66;;;7.93;98.99
77725;BME280;66892;53.236;6.550;2023-04-16T02:22:12;102303.44;;;7.98;99.13
77725;BME280;66892;53.236;6.550;2023-04-16T02:24:38;102299.81;;;7.94;99.09
77725;BME280;66892;53.236;6.550;2023-04-16T02:27:04;102311.97;;;7.89;99.56
77725;BME280;66892;53.236;6.550;2023-04-16T02:29:31;102311.16;;;7.92;99.53
77725;BME280;66892;53.236;6.550;2023-04-16T02:31:57;102304.19;;;7.94;98.76
77725;BME280;66892;53.236;6.550;2023-04-16T02:34:24;102312.81;;;7.88;99.31
77725;BME280;66892;53.236;6.550;2023-04-16T02:36:50;102307.47;;;7.87;99.34
77725;BME280;66892;53.236;6.550;2023-04-16T02:39:16;102305.63;;;7.83;99.17
77725;BME280;66892;53.236;6.550;2023-04-16T02:41:42;102307.25;;;7.79;99.42
77725;BME280;66892;53.236;6.550;2023-04-16T02:44:08;102308.91;;;7.76;99.46
77725;BME280;66892;53.236;6.550;2023-04-16T02:46:35;102299.53;;;7.85;99.22
77725;BME280;66892;53.236;6.550;2023-04-16T02:49:01;102301.13;;;7.80;99.12
77725;BME280;66892;53.236;6.550;2023-04-16T02:51:27;102297.91;;;7.89;99.06
77725;BME280;66892;53.236;6.550;2023-04-16T02:53:53;102290.81;;;7.86;99.01
77725;BME280;66892;53.236;6.550;2023-04-16T02:56:19;102295.75;;;7.76;99.58
77725;BME280;66892;53.236;6.550;2023-04-16T02:58:45;102294.94;;;7.78;99.25
77725;BME280;66892;53.236;6.550;2023-04-16T03:01:11;102293.91;;;7.73;99.58
77725;BME280;66892;53.236;6.550;2023-04-16T03:03:39;102291.31;;;7.75;99.43
77725;BME280;66892;53.236;6.550;2023-04-16T03:06:05;102289.66;;;7.78;99.24
77725;BME280;66892;53.236;6.550;2023-04-16T03:08:31;102300.19;;;7.78;99.53
77725;BME280;66892;53.236;6.550;2023-04-16T03:10:57;102303.00;;;7.83;99.27
77725;BME280;66892;53.236;6.550;2023-04-16T03:13:23;102295.75;;;7.77;99.34
77725;BME280;66892;53.236;6.550;2023-04-16T03:15:49;102302.84;;;7.78;99.30
77725;BME280;66892;53.236;6.550;2023-04-16T03:18:15;102292.09;;;7.72;99.44
77725;BME280;66892;53.236;6.550;2023-04-16T03:20:42;102305.22;;;7.71;99.63
77725;BME280;66892;53.236;6.550;2023-04-16T03:23:08;102302.56;;;7.71;99.71
77725;BME280;66892;53.236;6.550;2023-04-16T03:25:34;102306.75;;;7.64;99.76
77725;BME280;66892;53.236;6.550;2023-04-16T03:28:01;102304.00;;;7.60;100.00
77725;BME280;66892;53.236;6.550;2023-04-16T03:30:28;102305.72;;;7.59;100.00
77725;BME280;66892;53.236;6.550;2023-04-16T03:32:54;102312.78;;;7.60;99.92
77725;BME280;66892;53.236;6.550;2023-04-16T03:35:20;102316.44;;;7.65;99.96
77725;BME280;66892;53.236;6.550;2023-04-16T03:37:47;102327.78;;;7.63;99.53
77725;BME280;66892;53.236;6.550;2023-04-16T03:40:14;102322.81;;;7.72;99.63
77725;BME280;66892;53.236;6.550;2023-04-16T03:42:40;102318.34;;;7.69;99.54
77725;BME280;66892;53.236;6.550;2023-04-16T03:45:07;102327.88;;;7.66;99.71
77725;BME280;66892;53.236;6.550;2023-04-16T03:47:34;102321.91;;;7.71;99.64
77725;BME280;66892;53.236;6.550;2023-04-16T03:50:00;102333.34;;;7.72;99.47
77725;BME280;66892;53.236;6.550;2023-04-16T03:52:26;102325.19;;;7.64;99.53
77725;BME280;66892;53.236;6.550;2023-04-16T03:54:54;102326.19;;;7.68;99.48
77725;BME280;66892;53.236;6.550;2023-04-16T03:57:20;102327.72;;;7.61;99.63
77725;BME280;66892;53.236;6.550;2023-04-16T03:59:46;102330.13;;;7.54;100.00
77725;BME280;66892;53.236;6.550;2023-04-16T04:02:12;102331.06;;;7.56;99.75
77725;BME280;66892;53.236;6.550;2023-04-16T04:04:38;102322.97;;;7.50;99.97
77725;BME280;66892;53.236;6.550;2023-04-16T04:07:04;102333.78;;;7.59;100.00
77725;BME280;66892;53.236;6.550;2023-04-16T04:09:30;102334.78;;;7.62;99.50
77725;BME280;66892;53.236;6.550;2023-04-16T04:11:57;102339.91;;;7.58;99.62
77725;BME280;66892;53.236;6.550;2023-04-16T04:14:23;102334.03;;;7.66;98.86
77725;BME280;66892;53.236;6.550;2023-04-16T04:16:49;102341.75;;;7.60;98.88
77725;BME280;66892;53.236;6.550;2023-04-16T04:19:15;102341.69;;;7.59;99.05
77725;BME280;66892;53.236;6.550;2023-04-16T04:21:41;102340.56;;;7.51;99.15
77725;BME280;66892;53.236;6.550;2023-04-16T04:24:07;102342.28;;;7.50;99.28
77725;BME280;66892;53.236;6.550;2023-04-16T04:26:33;102346.72;;;7.51;99.33
77725;BME280;66892;53.236;6.550;2023-04-16T04:29:00;102351.09;;;7.51;99.34
77725;BME280;66892;53.236;6.550;2023-04-16T04:31:26;102351.97;;;7.51;99.59
77725;BME280;66892;53.236;6.550;2023-04-16T04:33:52;102348.47;;;7.52;99.39
77725;BME280;66892;53.236;6.550;2023-04-16T04:36:18;102353.09;;;7.58;99.44
77725;BME280;66892;53.236;6.550;2023-04-16T04:38:45;102348.66;;;7.57;99.62
77725;BME280;66892;53.236;6.550;2023-04-16T04:41:11;102353.00;;;7.56;99.48
77725;BME280;66892;53.236;6.550;2023-04-16T04:43:37;102359.00;;;7.52;99.55
77725;BME280;66892;53.236;6.550;2023-04-16T04:46:04;102361.66;;;7.52;99.75
77725;BME280;66892;53.236;6.550;2023-04-16T04:48:31;102361.75;;;7.55;99.54
77725;BME280;66892;53.236;6.550;2023-04-16T04:50:57;102367.72;;;7.50;99.74
77725;BME280;66892;53.236;6.550;2023-04-16T04:53:23;102371.25;;;7.50;99.86
77725;BME280;66892;53.236;6.550;2023-04-16T04:55:49;102368.75;;;7.55;100.00
77725;BME280;66892;53.236;6.550;2023-04-16T04:58:15;102371.38;;;7.55;99.97
77725;BME280;66892;53.236;6.550;2023-04-16T05:00:41;102378.63;;;7.62;99.89
77725;BME280;66892;53.236;6.550;2023-04-16T05:03:10;102367.06;;;7.57;100.00
77725;BME280;66892;53.236;6.550;2023-04-16T05:05:37;102375.72;;;7.53;100.00
77725;BME280;66892;53.236;6.550;2023-04-16T05:08:03;102372.03;;;7.48;100.00
77725;BME280;66892;53.236;6.550;2023-04-16T05:10:29;102378.97;;;7.46;100.00
77725;BME280;66892;53.236;6.550;2023-04-16T05:12:55;102379.03;;;7.47;100.00
77725;BME280;66892;53.236;6.550;2023-04-16T05:15:21;102379.84;;;7.45;100.00
77725;BME280;66892;53.236;6.550;2023-04-16T05:17:48;102378.03;;;7.43;100.00
77725;BME280;66892;53.236;6.550;2023-04-16T05:20:15;102385.00;;;7.41;100.00
77725;BME280;66892;53.236;6.550;2023-04-16T05:22:41;102384.34;;;7.49;99.90
77725;BME280;66892;53.236;6.550;2023-04-16T05:25:07;102388.69;;;7.48;99.66
77725;BME280;66892;53.236;6.550;2023-04-16T05:27:33;102392.19;;;7.47;99.88
77725;BME280;66892;53.236;6.550;2023-04-16T05:30:00;102391.09;;;7.40;100.00
77725;BME280;66892;53.236;6.550;2023-04-16T05:32:26;102390.09;;;7.37;100.00
77725;BME280;66892;53.236;6.550;2023-04-16T05:34:52;102397.56;;;7.50;100.00
77725;BME280;66892;53.236;6.550;2023-04-16T05:37:20;102399.13;;;7.45;100.00
77725;BME280;66892;53.236;6.550;2023-04-16T05:39:46;102404.50;;;7.48;100.00
77725;BME280;66892;53.236;6.550;2023-04-16T05:42:12;102404.72;;;7.54;99.88
77725;BME280;66892;53.236;6.550;2023-04-16T05:44:39;102404.97;;;7.62;99.78
77725;BME280;66892;53.236;6.550;2023-04-16T05:47:05;102414.84;;;7.67;99.83
77725;BME280;66892;53.236;6.550;2023-04-16T05:49:34;102404.28;;;7.67;100.00
77725;BME280;66892;53.236;6.550;2023-04-16T05:52:01;102407.16;;;7.75;99.92
77725;BME280;66892;53.236;6.550;2023-04-16T05:54:28;102413.50;;;7.80;99.29
77725;BME280;66892;53.236;6.550;2023-04-16T05:56:54;102417.41;;;7.92;99.49
77725;BME280;66892;53.236;6.550;2023-04-16T05:59:21;102415.63;;;7.91;99.30
77725;BME280;66892;53.236;6.550;2023-04-16T06:01:47;102414.91;;;7.97;99.12
77725;BME280;66892;53.236;6.550;2023-04-16T06:04:13;102413.88;;;7.92;99.16
77725;BME280;66892;53.236;6.550;2023-04-16T06:06:39;102416.56;;;7.93;99.40
77725;BME280;66892;53.236;6.550;2023-04-16T06:09:05;102420.19;;;7.97;99.38
77725;BME280;66892;53.236;6.550;2023-04-16T06:11:32;102418.00;;;8.11;99.25
77725;BME280;66892;53.236;6.550;2023-04-16T06:13:58;102423.91;;;8.04;99.16
77725;BME280;66892;53.236;6.550;2023-04-16T06:16:24;102435.44;;;8.07;99.10
77725;BME280;66892;53.236;6.550;2023-04-16T06:18:50;102433.75;;;8.09;99.29
77725;BME280;66892;53.236;6.550;2023-04-16T06:21:16;102432.91;;;8.10;98.65
77725;BME280;66892;53.236;6.550;2023-04-16T06:23:43;102436.88;;;8.24;98.49
77725;BME280;66892;53.236;6.550;2023-04-16T06:26:10;102438.78;;;8.28;98.36
77725;BME280;66892;53.236;6.550;2023-04-16T06:28:37;102439.09;;;8.37;98.54
77725;BME280;66892;53.236;6.550;2023-04-16T06:31:03;102449.03;;;8.46;97.65
77725;BME280;66892;53.236;6.550;2023-04-16T06:33:30;102444.56;;;8.43;97.71
77725;BME280;66892;53.236;6.550;2023-04-16T06:35:56;102442.84;;;8.45;97.50
77725;BME280;66892;53.236;6.550;2023-04-16T06:38:22;102449.09;;;8.48;97.69
77725;BME280;66892;53.236;6.550;2023-04-16T06:40:48;102450.13;;;8.54;97.26
77725;BME280;66892;53.236;6.550;2023-04-16T06:43:15;102448.88;;;8.70;96.61
77725;BME280;66892;53.236;6.550;2023-04-16T06:45:44;102449.91;;;8.75;96.49
77725;BME280;66892;53.236;6.550;2023-04-16T06:48:10;102453.34;;;8.72;96.19
77725;BME280;66892;53.236;6.550;2023-04-16T06:50:36;102449.00;;;8.74;96.12
77725;BME280;66892;53.236;6.550;2023-04-16T06:53:02;102452.63;;;8.78;95.58
77725;BME280;66892;53.236;6.550;2023-04-16T06:55:28;102460.50;;;8.76;96.32
77725;BME280;66892;53.236;6.550;2023-04-16T06:57:54;102449.91;;;8.75;95.75
77725;BME280;66892;53.236;6.550;2023-04-16T07:00:20;102470.94;;;8.73;95.77
77725;BME280;66892;53.236;6.550;2023-04-16T07:02:48;102466.72;;;8.78;95.58
77725;BME280;66892;53.236;6.550;2023-04-16T07:05:13;102475.44;;;8.76;95.71
77725;BME280;66892;53.236;6.550;2023-04-16T07:07:40;102470.44;;;8.86;94.85
77725;BME280;66892;53.236;6.550;2023-04-16T07:10:06;102467.81;;;8.86;94.63
77725;BME280;66892;53.236;6.550;2023-04-16T07:12:32;102470.28;;;8.80;94.44
77725;BME280;66892;53.236;6.550;2023-04-16T07:14:59;102470.28;;;8.80;94.71
77725;BME280;66892;53.236;6.550;2023-04-16T07:17:25;102478.16;;;8.79;94.66
77725;BME280;66892;53.236;6.550;2023-04-16T07:19:52;102476.63;;;8.87;94.49
77725;BME280;66892;53.236;6.550;2023-04-16T07:22:18;102490.09;;;8.96;93.78
77725;BME280;66892;53.236;6.550;2023-04-16T07:24:45;102482.97;;;8.93;94.26
77725;BME280;66892;53.236;6.550;2023-04-16T07:27:11;102478.34;;;8.85;94.46
77725;BME280;66892;53.236;6.550;2023-04-16T07:29:37;102479.19;;;8.84;94.72
77725;BME280;66892;53.236;6.550;2023-04-16T07:32:04;102480.91;;;8.83;94.36
77725;BME280;66892;53.236;6.550;2023-04-16T07:34:30;102481.56;;;8.75;94.75
77725;BME280;66892;53.236;6.550;2023-04-16T07:36:57;102478.06;;;8.76;94.28
77725;BME280;66892;53.236;6.550;2023-04-16T07:39:23;102478.84;;;8.73;94.47
77725;BME280;66892;53.236;6.550;2023-04-16T07:41:49;102491.94;;;8.70;94.80
77725;BME280;66892;53.236;6.550;2023-04-16T07:44:15;102488.53;;;8.73;94.67
77725;BME280;66892;53.236;6.550;2023-04-16T07:46:41;102483.53;;;8.82;94.79
77725;BME280;66892;53.236;6.550;2023-04-16T07:49:07;102484.13;;;9.02;94.20
77725;BME280;66892;53.236;6.550;2023-04-16T07:51:33;102494.75;;;9.05;94.41
77725;BME280;66892;53.236;6.550;2023-04-16T07:54:01;102496.72;;;9.12;93.83
77725;BME280;66892;53.236;6.550;2023-04-16T07:56:27;102493.53;;;9.23;93.10
77725;BME280;66892;53.236;6.550;2023-04-16T07:58:53;102492.06;;;9.34;92.73
77725;BME280;66892;53.236;6.550;2023-04-16T08:01:19;102496.50;;;9.34;92.67
77725;BME280;66892;53.236;6.550;2023-04-16T08:03:45;102494.78;;;9.36;92.85
77725;BME280;66892;53.236;6.550;2023-04-16T08:06:11;102492.53;;;9.49;92.60
77725;BME280;66892;53.236;6.550;2023-04-16T08:08:37;102499.66;;;9.53;91.91
77725;BME280;66892;53.236;6.550;2023-04-16T08:11:05;102496.34;;;9.61;92.12
77725;BME280;66892;53.236;6.550;2023-04-16T08:13:31;102502.44;;;9.91;91.06
77725;BME280;66892;53.236;6.550;2023-04-16T08:15:57;102506.63;;;10.16;89.89
77725;BME280;66892;53.236;6.550;2023-04-16T08:18:23;102501.53;;;10.23;88.97
77725;BME280;66892;53.236;6.550;2023-04-16T08:20:49;102508.56;;;10.23;88.29
77725;BME280;66892;53.236;6.550;2023-04-16T08:23:15;102509.38;;;10.20;87.79
77725;BME280;66892;53.236;6.550;2023-04-16T08:25:41;102509.47;;;10.25;88.31
77725;BME280;66892;53.236;6.550;2023-04-16T08:28:08;102509.13;;;10.47;87.67
77725;BME280;66892;53.236;6.550;2023-04-16T08:30:35;102522.00;;;10.68;87.04
77725;BME280;66892;53.236;6.550;2023-04-16T08:33:01;102517.84;;;10.79;87.45
77725;BME280;66892;53.236;6.550;2023-04-16T08:35:27;102517.16;;;10.89;87.02
77725;BME280;66892;53.236;6.550;2023-04-16T08:37:53;102513.19;;;11.07;86.55
77725;BME280;66892;53.236;6.550;2023-04-16T08:40:19;102522.28;;;11.22;85.69
77725;BME280;66892;53.236;6.550;2023-04-16T08:42:52;102516.09;;;11.20;84.37
77725;BME280;66892;53.236;6.550;2023-04-16T08:45:20;102519.69;;;11.23;84.50
77725;BME280;66892;53.236;6.550;2023-04-16T08:47:47;102514.69;;;11.38;83.39
77725;BME280;66892;53.236;6.550;2023-04-16T08:50:13;102515.78;;;11.49;83.44
77725;BME280;66892;53.236;6.550;2023-04-16T08:52:44;102524.44;;;11.41;82.88
77725;BME280;66892;53.236;6.550;2023-04-16T08:55:12;102522.31;;;11.65;82.41
77725;BME280;66892;53.236;6.550;2023-04-16T08:57:46;102524.31;;;11.77;81.93
77725;BME280;66892;53.236;6.550;2023-04-16T09:00:14;102529.56;;;11.75;82.34
77725;BME280;66892;53.236;6.550;2023-04-16T09:02:42;102526.16;;;11.81;81.03
77725;BME280;66892;53.236;6.550;2023-04-16T09:05:09;102528.81;;;11.82;82.72
77725;BME280;66892;53.236;6.550;2023-04-16T09:07:36;102535.81;;;11.79;82.03
77725;BME280;66892;53.236;6.550;2023-04-16T09:10:05;102531.34;;;11.75;81.79
77725;BME280;66892;53.236;6.550;2023-04-16T09:12:31;102530.00;;;11.98;82.05
77725;BME280;66892;53.236;6.550;2023-04-16T09:14:58;102535.53;;;12.11;80.53
77725;BME280;66892;53.236;6.550;2023-04-16T09:17:27;102537.09;;;11.99;80.99
77725;BME280;66892;53.236;6.550;2023-04-16T09:19:55;102538.19;;;12.10;80.30
77725;BME280;66892;53.236;6.550;2023-04-16T09:22:21;102542.75;;;12.19;80.80
77725;BME280;66892;53.236;6.550;2023-04-16T09:24:47;102534.84;;;12.22;81.16
77725;BME280;66892;53.236;6.550;2023-04-16T09:27:13;102543.75;;;12.25;78.42
77725;BME280;66892;53.236;6.550;2023-04-16T09:29:40;102535.78;;;12.25;78.64
77725;BME280;66892;53.236;6.550;2023-04-16T09:32:08;102544.50;;;12.17;79.42
77725;BME280;66892;53.236;6.550;2023-04-16T09:34:53;102541.84;;;12.17;80.12
77725;BME280;66892;53.236;6.550;2023-04-16T09:37:20;102543.84;;;12.31;79.83
77725;BME280;66892;53.236;6.550;2023-04-16T09:39:52;102551.03;;;12.38;79.51
77725;BME280;66892;53.236;6.550;2023-04-16T09:42:20;102549.28;;;12.40;79.24
77725;BME280;66892;53.236;6.550;2023-04-16T09:44:48;102560.91;;;12.47;78.79
77725;BME280;66892;53.236;6.550;2023-04-16T09:47:14;102562.47;;;12.34;79.17
77725;BME280;66892;53.236;6.550;2023-04-16T09:49:40;102558.91;;;12.34;79.69
77725;BME280;66892;53.236;6.550;2023-04-16T09:52:08;102560.56;;;12.26;80.19
77725;BME280;66892;53.236;6.550;2023-04-16T09:54:38;102559.84;;;12.37;79.38
77725;BME280;66892;53.236;6.550;2023-04-16T09:57:11;102564.22;;;12.34;79.84
77725;BME280;66892;53.236;6.550;2023-04-16T09:59:37;102563.59;;;12.48;79.79
77725;BME280;66892;53.236;6.550;2023-04-16T10:02:03;102564.53;;;12.53;79.45
77725;BME280;66892;53.236;6.550;2023-04-16T10:04:44;102566.19;;;12.45;78.10
77725;BME280;66892;53.236;6.550;2023-04-16T10:07:10;102565.50;;;12.57;76.69
77725;BME280;66892;53.236;6.550;2023-04-16T10:09:39;102560.22;;;12.60;76.35
77725;BME280;66892;53.236;6.550;2023-04-16T10:12:06;102565.72;;;12.71;75.40
77725;BME280;66892;53.236;6.550;2023-04-16T10:14:32;102556.03;;;12.76;76.31
77725;BME280;66892;53.236;6.550;2023-04-16T10:16:59;102564.22;;;12.91;76.04
77725;BME280;66892;53.236;6.550;2023-04-16T10:19:26;102564.44;;;13.04;75.46
77725;BME280;66892;53.236;6.550;2023-04-16T10:21:53;102563.53;;;13.02;75.73
77725;BME280;66892;53.236;6.550;2023-04-16T10:24:19;102562.03;;;13.19;76.06
77725;BME280;66892;53.236;6.550;2023-04-16T10:26:48;102567.31;;;13.18;74.31
77725;BME280;66892;53.236;6.550;2023-04-16T10:29:15;102575.09;;;13.07;75.74
77725;BME280;66892;53.236;6.550;2023-04-16T10:31:41;102573.50;;;13.17;75.08
77725;BME280;66892;53.236;6.550;2023-04-16T10:34:08;102567.44;;;13.26;74.92
77725;BME280;66892;53.236;6.550;2023-04-16T10:36:36;102574.75;;;13.46;72.61
77725;BME280;66892;53.236;6.550;2023-04-16T10:39:02;102566.88;;;13.52;73.35
77725;BME280;66892;53.236;6.550;2023-04-16T10:41:31;102576.78;;;13.64;73.06
77725;BME280;66892;53.236;6.550;2023-04-16T10:44:05;102567.75;;;13.51;73.18
77725;BME280;66892;53.236;6.550;2023-04-16T10:46:36;102575.00;;;13.66;74.15
77725;BME280;66892;53.236;6.550;2023-04-16T10:49:13;102581.75;;;13.38;74.83
77725;BME280;66892;53.236;6.550;2023-04-16T10:51:40;102574.56;;;12.71;76.36
77725;BME280;66892;53.236;6.550;2023-04-16T10:54:19;102588.56;;;12.61;76.89
77725;BME280;66892;53.236;6.550;2023-04-16T10:56:46;102588.38;;;12.49;76.87
77725;BME280;66892;53.236;6.550;2023-04-16T10:59:17;102585.63;;;12.44;78.20
77725;BME280;66892;53.236;6.550;2023-04-16T11:01:45;102581.88;;;12.33;78.81
77725;BME280;66892;53.236;6.550;2023-04-16T11:04:29;102577.53;;;12.37;76.87
77725;BME280;66892;53.236;6.550;2023-04-16T11:07:01;102587.06;;;12.26;78.20
77725;BME280;66892;53.236;6.550;2023-04-16T11:09:50;102572.94;;;12.27;78.22
77725;BME280;66892;53.236;6.550;2023-04-16T11:12:17;102583.88;;;12.45;76.60
77725;BME280;66892;53.236;6.550;2023-04-16T11:14:47;102579.13;;;12.81;76.43
77725;BME280;66892;53.236;6.550;2023-04-16T11:17:13;102579.09;;;12.78;76.08
77725;BME280;66892;53.236;6.550;2023-04-16T11:19:41;102581.63;;;12.71;75.88
77725;BME280;66892;53.236;6.550;2023-04-16T11:22:07;102578.47;;;12.96;74.86
77725;BME280;66892;53.236;6.550;2023-04-16T11:24:33;102571.34;;;12.92;75.51
77725;BME280;66892;53.236;6.550;2023-04-16T11:27:00;102580.06;;;12.85;76.66
77725;BME280;66892;53.236;6.550;2023-04-16T11:29:27;102581.78;;;12.80;76.20
77725;BME280;66892;53.236;6.550;2023-04-16T11:31:55;102580.69;;;12.68;76.32
77725;BME280;66892;53.236;6.550;2023-04-16T11:34:21;102573.00;;;12.85;76.30
77725;BME280;66892;53.236;6.550;2023-04-16T11:36:49;102572.66;;;13.19;75.89
77725;BME280;66892;53.236;6.550;2023-04-16T11:39:15;102575.72;;;13.51;74.48
77725;BME280;66892;53.236;6.550;2023-04-16T11:41:42;102578.34;;;13.48;74.09
77725;BME280;66892;53.236;6.550;2023-04-16T11:44:18;102584.59;;;13.53;73.47
77725;BME280;66892;53.236;6.550;2023-04-16T11:46:45;102580.78;;;13.32;74.04
77725;BME280;66892;53.236;6.550;2023-04-16T11:49:12;102584.44;;;13.38;74.30
77725;BME280;66892;53.236;6.550;2023-04-16T11:51:39;102581.88;;;13.49;74.60
77725;BME280;66892;53.236;6.550;2023-04-16T11:54:05;102587.75;;;13.22;75.12
77725;BME280;66892;53.236;6.550;2023-04-16T11:56:34;102586.09;;;13.32;75.22
77725;BME280;66892;53.236;6.550;2023-04-16T11:59:07;102587.91;;;13.34;75.24
77725;BME280;66892;53.236;6.550;2023-04-16T12:01:34;102595.41;;;13.04;74.59
77725;BME280;66892;53.236;6.550;2023-04-16T12:04:01;102593.75;;;13.10;75.18
77725;BME280;66892;53.236;6.550;2023-04-16T12:06:28;102594.69;;;13.14;75.04
77725;BME280;66892;53.236;6.550;2023-04-16T12:08:56;102588.59;;;13.21;74.12
77725;BME280;66892;53.236;6.550;2023-04-16T12:11:36;102590.41;;;13.22;74.59
77725;BME280;66892;53.236;6.550;2023-04-16T12:14:06;102599.31;;;13.27;74.29
77725;BME280;66892;53.236;6.550;2023-04-16T12:16:33;102597.00;;;13.53;73.94
77725;BME280;66892;53.236;6.550;2023-04-16T12:19:00;102592.03;;;13.12;73.89
77725;BME280;66892;53.236;6.550;2023-04-16T12:21:36;102587.03;;;13.37;73.67
77725;BME280;66892;53.236;6.550;2023-04-16T12:24:03;102595.94;;;13.40;73.85
77725;BME280;66892;53.236;6.550;2023-04-16T12:26:36;102590.47;;;13.28;73.30
77725;BME280;66892;53.236;6.550;2023-04-16T12:29:16;102600.13;;;13.22;74.02
77725;BME280;66892;53.236;6.550;2023-04-16T12:31:42;102596.28;;;13.64;72.60
77725;BME280;66892;53.236;6.550;2023-04-16T12:34:09;102601.66;;;13.72;72.02
77725;BME280;66892;53.236;6.550;2023-04-16T12:36:36;102604.16;;;13.58;71.72
77725;BME280;66892;53.236;6.550;2023-04-16T12:39:03;102600.69;;;13.64;71.41
77725;BME280;66892;53.236;6.550;2023-04-16T12:41:29;102604.72;;;13.33;73.00
77725;BME280;66892;53.236;6.550;2023-04-16T12:44:02;102602.34;;;13.56;72.57
77725;BME280;66892;53.236;6.550;2023-04-16T12:46:28;102604.31;;;13.72;70.77
77725;BME280;66892;53.236;6.550;2023-04-16T12:48:54;102603.81;;;14.05;70.15
77725;BME280;66892;53.236;6.550;2023-04-16T12:51:22;102600.03;;;13.85;71.60
77725;BME280;66892;53.236;6.550;2023-04-16T12:53:49;102603.25;;;13.56;72.67